^^
Grace C. Lehan Memorial Weather Station Historical Data
Daily Summary for February 6, 2021 Units:  English    Metric   Both
Daily Weekly Monthly Yearly
  High: Low: Average:
Temperature: 42.6 °F 33.3 °F 35.9 °F
Dew Point: 31.7 °F 24.4 °F 27.8 °F
Humidity: 85% 60.4% 73%
Wind Speed: 9.1mph 0mph 3.8mph
Wind Gust: 22mph - -
Wind- - NW
Pressure: 29.96 in 29.87 in -
Precipitation: 0.00 in    
 
 
Tabular Data for February 6, 2021
Time Temperature Dew Point Pressure Wind Wind Speed Wind Gust Humidity Rainfall Rate (Hourly) solar
00:04 36.1 °F 31.3 °F 29.88 in NNW 0.2 mph 5 mph 82.5% 0.00 in 0 W/m2
00:09 36.1 °F 31.5 °F 29.88 in Calm   4 mph 83% 0.00 in 0 W/m2
00:14 36.1 °F 31.4 °F 29.88 in Calm   4 mph 83% 0.00 in 0 W/m2
00:19 36 °F 31.4 °F 29.88 in Calm   4 mph 83% 0.00 in 0 W/m2
00:24 36 °F 31.4 °F 29.88 in Calm   4 mph 83% 0.00 in 0 W/m2
00:29 35.9 °F 31.3 °F 29.88 in Calm   4 mph 83% 0.00 in 0 W/m2
00:34 35.9 °F 31.3 °F 29.88 in Calm   4 mph 83% 0.00 in 0 W/m2
00:39 35.8 °F 31.2 °F 29.88 in Calm     83% 0.00 in 0 W/m2
00:44 35.8 °F 31.2 °F 29.88 in Calm     83.1% 0.00 in 0 W/m2
00:49 35.7 °F 31.4 °F 29.88 in NNW 0.1 mph 2 mph 84% 0.00 in 0 W/m2
00:54 35.7 °F 31.4 °F 29.88 in NNW 0.1 mph 2 mph 84% 0.00 in 0 W/m2
00:59 35.7 °F 31.4 °F 29.88 in Calm   2 mph 84% 0.00 in 0 W/m2
01:04 35.7 °F 31.4 °F 29.88 in Calm   2 mph 84% 0.00 in 0 W/m2
01:09 35.7 °F 31.4 °F 29.88 in Calm     84% 0.00 in 0 W/m2
01:14 35.7 °F 31.4 °F 29.88 in Calm     84% 0.00 in 0 W/m2
01:19 35.7 °F 31.6 °F 29.88 in Calm   1 mph 84.7% 0.00 in 0 W/m2
01:24 35.7 °F 31.7 °F 29.88 in NNW 0.8 mph 4 mph 85% 0.00 in 0 W/m2
01:29 35.8 °F 31.7 °F 29.88 in NNW 0.5 mph 4 mph 85% 0.00 in 0 W/m2
01:34 35.8 °F 31.7 °F 29.88 in NNW 0.4 mph 4 mph 85% 0.00 in 0 W/m2
01:39 35.8 °F 31.7 °F 29.88 in NNW 0.2 mph 2 mph 85% 0.00 in 0 W/m2
01:44 35.8 °F 31.7 °F 29.88 in NNW 0.5 mph 4 mph 85% 0.00 in 0 W/m2
01:49 35.8 °F 31.7 °F 29.88 in Calm   4 mph 85% 0.00 in 0 W/m2
01:54 35.8 °F 31.7 °F 29.88 in Calm   4 mph 85% 0.00 in 0 W/m2
01:59 35.8 °F 31.7 °F 29.88 in Calm   4 mph 85% 0.00 in 0 W/m2
02:04 35.7 °F 31.7 °F 29.88 in Calm   4 mph 85% 0.00 in 0 W/m2
02:09 35.7 °F 31.6 °F 29.88 in Calm     85% 0.00 in 0 W/m2
02:14 35.6 °F 31.6 °F 29.88 in Calm     85% 0.00 in 0 W/m2
02:19 35.6 °F 31.5 °F 29.88 in Calm     85% 0.00 in 0 W/m2
02:24 35.5 °F 31.5 °F 29.88 in NNW 0.3 mph 4 mph 85% 0.00 in 0 W/m2
02:29 35.5 °F 31.5 °F 29.88 in NNW 1.7 mph 5 mph 85% 0.00 in 0 W/m2
02:34 35.5 °F 31.4 °F 29.88 in NNW 1.7 mph 5 mph 85% 0.00 in 0 W/m2
02:39 35.4 °F 31.3 °F 29.88 in Calm   4 mph 84.7% 0.00 in 0 W/m2
02:44 35.4 °F 31.1 °F 29.88 in NNW 0.6 mph 4 mph 84% 0.00 in 0 W/m2
02:49 35.4 °F 31.1 °F 29.88 in NNW 0.4 mph 4 mph 84% 0.00 in 0 W/m2
02:54 35.4 °F 30.9 °F 29.88 in NW 1.9 mph 7 mph 83.4% 0.00 in 0 W/m2
02:59 35.3 °F 30.7 °F 29.88 in NW 1 mph 7 mph 83% 0.00 in 0 W/m2
03:04 35.3 °F 30.7 °F 29.88 in NW 1.2 mph 7 mph 83% 0.00 in 0 W/m2
03:09 35.3 °F 30.4 °F 29.88 in WNW 2.1 mph 7 mph 82.2% 0.00 in 0 W/m2
03:14 35.3 °F 30.4 °F 29.88 in WNW 2.2 mph 7 mph 82% 0.00 in 0 W/m2
03:19 35.3 °F 30.4 °F 29.88 in WNW 1.5 mph 7 mph 82% 0.00 in 0 W/m2
03:24 35.3 °F 30.2 °F 29.88 in NW 2.9 mph 7 mph 81.4% 0.00 in 0 W/m2
03:29 35.3 °F 30.1 °F 29.88 in WNW 2.1 mph 7 mph 81% 0.00 in 0 W/m2
03:34 35.3 °F 30.1 °F 29.88 in WNW 1.9 mph 7 mph 81% 0.00 in 0 W/m2
03:39 35.3 °F 29.8 °F 29.88 in WNW 3.4 mph 7 mph 80.1% 0.00 in 0 W/m2
03:44 35.2 °F 29.6 °F 29.88 in NW 3.2 mph 7 mph 79.6% 0.00 in 0 W/m2
03:49 35.2 °F 29.4 °F 29.88 in NW 1 mph 7 mph 79% 0.00 in 0 W/m2
03:54 35.2 °F 29.4 °F 29.88 in NW 1.9 mph 7 mph 79% 0.00 in 0 W/m2
03:59 35.2 °F 29.2 °F 29.88 in NW 2.6 mph 7 mph 78.5% 0.00 in 0 W/m2
04:00 35.2 °F 29 °F 29.88 in NW 3 mph 7 mph 78% 0.00 in 0 W/m2
04:09 35.2 °F 29 °F 29.88 in NW 2.5 mph 6 mph 77.8% 0.00 in 0 W/m2
04:14 35.2 °F 28.7 °F 29.88 in NW 1.2 mph 6 mph 77% 0.00 in 0 W/m2
04:19 35.1 °F 28.7 °F 29.87 in NW 2 mph 10 mph 77% 0.00 in 0 W/m2
04:24 35.1 °F 28.6 °F 29.88 in NW 1.8 mph 10 mph 77% 0.00 in 0 W/m2
04:29 35.1 °F 28.6 °F 29.87 in NW 0.6 mph 10 mph 76.8% 0.00 in 0 W/m2
04:34 35.1 °F 28.5 °F 29.88 in NW 0.4 mph 10 mph 76.5% 0.00 in 0 W/m2
04:39 35 °F 28.2 °F 29.88 in NW 1.4 mph 6 mph 76% 0.00 in 0 W/m2
04:44 35 °F 28.2 °F 29.88 in NW 2.9 mph 7 mph 76% 0.00 in 0 W/m2
04:49 34.9 °F 28.1 °F 29.88 in NW 1.4 mph 7 mph 76% 0.00 in 0 W/m2
04:54 34.9 °F 28.1 °F 29.88 in NW 2.4 mph 7 mph 76% 0.00 in 0 W/m2
04:59 34.8 °F 28 °F 29.88 in NW 3.1 mph 11 mph 76% 0.00 in 0 W/m2
05:04 34.8 °F 28 °F 29.88 in NW 1.1 mph 11 mph 76% 0.00 in 0 W/m2
05:09 34.8 °F 28 °F 29.88 in WNW 2.1 mph 11 mph 76% 0.00 in 0 W/m2
05:14 34.8 °F 28 °F 29.88 in NW 2.7 mph 11 mph 76% 0.00 in 0 W/m2
05:19 34.8 °F 28 °F 29.88 in NW 1.7 mph 11 mph 76% 0.00 in 0 W/m2
05:24 34.8 °F 27.9 °F 29.88 in NNW 1.6 mph 11 mph 75.7% 0.00 in 0 W/m2
05:29 34.8 °F 27.8 °F 29.88 in NW 3.6 mph 11 mph 75.2% 0.00 in 0 W/m2
05:34 34.8 °F 27.7 °F 29.88 in NW 3.9 mph 12 mph 75% 0.00 in 0 W/m2
05:39 34.8 °F 27.7 °F 29.88 in NW 4.5 mph 16 mph 75% 0.00 in 0 W/m2
05:44 34.9 °F 27.8 °F 29.88 in NW 3 mph 16 mph 75% 0.00 in 0 W/m2
05:49 34.9 °F 27.8 °F 29.88 in NW 5.3 mph 16 mph 75% 0.00 in 0 W/m2
05:54 34.8 °F 27.5 °F 29.88 in NW 3.7 mph 16 mph 74.1% 0.00 in 0 W/m2
05:59 34.8 °F 27.4 °F 29.88 in NW 4.9 mph 16 mph 74% 0.00 in 0 W/m2
06:04 34.8 °F 27.4 °F 29.88 in NW 4.1 mph 16 mph 74% 0.00 in 0 W/m2
06:09 34.8 °F 27.4 °F 29.88 in NW 1.8 mph 14 mph 74% 0.00 in 0 W/m2
06:14 34.7 °F 27.3 °F 29.88 in NW 3.5 mph 14 mph 74.1% 0.00 in 0 W/m2
06:19 34.6 °F 27.2 °F 29.88 in NW 4.3 mph 14 mph 74% 0.00 in 0 W/m2
06:24 34.6 °F 27.2 °F 29.88 in NW 5.4 mph 14 mph 74% 0.00 in 0 W/m2
06:29 34.5 °F 27.1 °F 29.88 in NW 3.3 mph 14 mph 74% 0.00 in 0 W/m2
06:34 34.5 °F 27 °F 29.89 in NW 4.2 mph 14 mph 74% 0.00 in 0 W/m2
06:39 34.4 °F 27.1 °F 29.89 in NW 4.7 mph 14 mph 74.4% 0.00 in 0 W/m2
06:44 34.3 °F 27 °F 29.89 in NW 3.8 mph 14 mph 74.3% 0.00 in 0 W/m2
06:49 34.3 °F 27.2 °F 29.90 in WNW 4.7 mph 14 mph 75% 0.00 in 0 W/m2
06:54 34.2 °F 27.1 °F 29.89 in NNW 0.7 mph 14 mph 75% 0.00 in 0 W/m2
06:59 34.1 °F 27.1 °F 29.90 in NW 2.5 mph 14 mph 75% 0.00 in 0 W/m2
07:04 34.1 °F 27.1 °F 29.90 in NW 2.2 mph 14 mph 75.3% 0.00 in 0 W/m2
07:09 34.1 °F 27.1 °F 29.90 in NW 3.2 mph 10 mph 75.3% 0.00 in 0 W/m2
07:14 34.1 °F 27 °F 29.90 in NW 2.8 mph 10 mph 75% 0.00 in 0 W/m2
07:19 34.2 °F 27.1 °F 29.90 in NW 4.4 mph 12 mph 75% 0.00 in 0 W/m2
07:24 34.2 °F 27.1 °F 29.91 in NW 2 mph 12 mph 75% 0.00 in 5 W/m2
07:29 34.2 °F 27.1 °F 29.91 in NW 2.6 mph 12 mph 75% 0.00 in 9 W/m2
07:34 34.2 °F 27.1 °F 29.91 in WNW 2.3 mph 12 mph 75% 0.00 in 9 W/m2
07:39 34.3 °F 27.2 °F 29.91 in NW 1.6 mph 7 mph 75% 0.00 in 12 W/m2
07:44 34.3 °F 27.2 °F 29.91 in NW 1.3 mph 7 mph 75% 0.00 in 16 W/m2
07:49 34.3 °F 27.2 °F 29.91 in NW 2.2 mph 7 mph 75% 0.00 in 19 W/m2
07:54 34.3 °F 27.2 °F 29.91 in NNW 2.8 mph 12 mph 75% 0.00 in 23 W/m2
07:59 34.4 °F 27.3 °F 29.92 in NW 1.3 mph 12 mph 75% 0.00 in 26 W/m2
08:04 34.4 °F 27 °F 29.92 in Calm     74% 0.00 in 30 W/m2
08:09 34.4 °F 27.2 °F 29.92 in NW 2.4 mph 7 mph 74.7% 0.00 in 35 W/m2
08:14 34.5 °F 27.4 °F 29.92 in NW 4 mph 11 mph 75% 0.00 in 40 W/m2
08:19 34.6 °F 27.4 °F 29.92 in NW 2.2 mph 11 mph 74.7% 0.00 in 49 W/m2
08:24 34.6 °F 27.3 °F 29.92 in NW 3.6 mph 13 mph 74.2% 0.00 in 56 W/m2
08:29 34.7 °F 27.2 °F 29.92 in NW 3.9 mph 13 mph 74% 0.00 in 63 W/m2
08:34 34.7 °F 27.2 °F 29.92 in NW 5.3 mph 13 mph 73.8% 0.00 in 67 W/m2
08:39 34.8 °F 27.3 °F 29.92 in NW 3.4 mph 13 mph 73.9% 0.00 in 72 W/m2
08:44 34.9 °F 27.3 °F 29.92 in NW 4.2 mph 13 mph 73.7% 0.00 in 79 W/m2
08:49 34.9 °F 27.3 °F 29.93 in NNW 5.6 mph 13 mph 73.5% 0.00 in 88 W/m2
08:54 35 °F 27.2 °F 29.92 in NW 5.6 mph 14 mph 73% 0.00 in 93 W/m2
08:59 35.1 °F 27.3 °F 29.93 in NW 4.8 mph 14 mph 73% 0.00 in 98 W/m2
09:04 35.1 °F 27.3 °F 29.93 in NNW 5.4 mph 14 mph 72.9% 0.00 in 109 W/m2
09:09 35.2 °F 27.1 °F 29.93 in NNW 3.6 mph 12 mph 72.1% 0.00 in 109 W/m2
09:14 35.3 °F 27.3 °F 29.93 in NW 4.9 mph 12 mph 72.2% 0.00 in 111 W/m2
09:19 35.4 °F 27.3 °F 29.93 in NNW 6.9 mph 14 mph 72% 0.00 in 113 W/m2
09:24 35.5 °F 27.4 °F 29.93 in NW 4.7 mph 17 mph 72% 0.00 in 113 W/m2
09:29 35.6 °F 27.5 °F 29.94 in NW 4.2 mph 17 mph 72% 0.00 in 90 W/m2
09:34 35.6 °F 27.8 °F 29.94 in NW 8.1 mph 17 mph 72.9% 0.00 in 60 W/m2
09:39 35.5 °F 27.1 °F 29.93 in NW 3.1 mph 15 mph 71.1% 0.00 in 165 W/m2
09:44 35.7 °F 27.6 °F 29.94 in North 2.2 mph 15 mph 72% 0.00 in 118 W/m2
09:49 36.1 °F 27.9 °F 29.93 in NNW 3.5 mph 15 mph 71.8% 0.00 in 104 W/m2
09:54 36.4 °F 28 °F 29.93 in NNW 5.5 mph 15 mph 71% 0.00 in 93 W/m2
09:59 36.6 °F 27.8 °F 29.93 in NNW 7 mph 15 mph 70.1% 0.00 in 91 W/m2
10:04 36.7 °F 27.9 °F 29.93 in NW 3.6 mph 15 mph 70% 0.00 in 121 W/m2
10:09 36.9 °F 28.1 °F 29.93 in NW 5 mph 14 mph 70% 0.00 in 142 W/m2
10:14 37.2 °F 28.4 °F 29.94 in NW 4.2 mph 14 mph 70% 0.00 in 241 W/m2
10:19 37.7 °F 28.5 °F 29.93 in NW 5.3 mph 14 mph 69.1% 0.00 in 281 W/m2
10:24 38.3 °F 28.9 °F 29.93 in NNW 4.2 mph 14 mph 68.5% 0.00 in 378 W/m2
10:29 39 °F 29.4 °F 29.93 in NW 2.5 mph 14 mph 68% 0.00 in 378 W/m2
10:34 39.8 °F 29.7 °F 29.93 in NW 4.8 mph 14 mph 67% 0.00 in 448 W/m2
10:39 40.4 °F 29.5 °F 29.93 in NW 8 mph 15 mph 64.8% 0.00 in 468 W/m2
10:44 40.5 °F 29 °F 29.92 in NNW 8.2 mph 15 mph 63.2% 0.00 in 482 W/m2
10:49 40.7 °F 29.2 °F 29.92 in NNW 6.7 mph 15 mph 63.3% 0.00 in 503 W/m2
10:54 41.1 °F 29.5 °F 29.92 in NW 7.7 mph 15 mph 62.9% 0.00 in 487 W/m2
10:59 41.5 °F 30 °F 29.92 in NNW 3.7 mph 15 mph 63.4% 0.00 in 483 W/m2
11:04 42 °F 30.1 °F 29.92 in North 4.6 mph 15 mph 62.5% 0.00 in 483 W/m2
11:09 42.4 °F 30.3 °F 29.91 in NNW 4.6 mph 14 mph 62% 0.00 in 315 W/m2
11:14 42.6 °F 30.4 °F 29.91 in NW 3.1 mph 14 mph 61.7% 0.00 in 308 W/m2
11:19 42.5 °F 29.8 °F 29.91 in NW 7.6 mph 18 mph 60.4% 0.00 in 285 W/m2
11:24 42 °F 29.5 °F 29.91 in NW 7.5 mph 22 mph 60.9% 0.00 in 274 W/m2
11:29 41.5 °F 29 °F 29.91 in NW 7.4 mph 22 mph 60.9% 0.00 in 446 W/m2
11:34 41.2 °F 29 °F 29.91 in NW 8.7 mph 22 mph 61.4% 0.00 in 366 W/m2
11:39 40.9 °F 29 °F 29.91 in NNW 5.1 mph 17 mph 62.2% 0.00 in 274 W/m2
11:44 40.9 °F 29 °F 29.91 in NNW 6.8 mph 17 mph 62.3% 0.00 in 223 W/m2
11:49 40.5 °F 28.5 °F 29.91 in NW 6 mph 17 mph 62% 0.00 in 272 W/m2
11:54 40.2 °F 28.7 °F 29.91 in NW 4.2 mph 17 mph 63.2% 0.00 in 272 W/m2
11:59 40.1 °F 28.7 °F 29.91 in NW 4.6 mph 17 mph 63.4% 0.00 in 213 W/m2
12:00 40 °F 28.8 °F 29.90 in NW 7 mph 17 mph 64% 0.00 in 207 W/m2
12:09 39.5 °F 28 °F 29.91 in WNW 8.1 mph 17 mph 63% 0.00 in 206 W/m2
12:14 39.2 °F 28.2 °F 29.91 in NW 5 mph 17 mph 64.5% 0.00 in 183 W/m2
12:19 39 °F 28.1 °F 29.91 in NNW 7.2 mph 17 mph 64.7% 0.00 in 183 W/m2
12:24 38.9 °F 27.9 °F 29.91 in NW 8.5 mph 17 mph 64.2% 0.00 in 179 W/m2
12:29 38.7 °F 27.6 °F 29.90 in NW 6.2 mph 17 mph 64.1% 0.00 in 165 W/m2
12:34 38.5 °F 27.8 °F 29.90 in NW 9 mph 17 mph 65% 0.00 in 174 W/m2
12:39 38.4 °F 27.6 °F 29.90 in NW 8.3 mph 16 mph 64.8% 0.00 in 188 W/m2
12:44 38.4 °F 27.6 °F 29.90 in NW 5.5 mph 16 mph 64.8% 0.00 in 207 W/m2
12:49 38.6 °F 28 °F 29.90 in NW 4.4 mph 16 mph 65.3% 0.00 in 225 W/m2
12:54 38.9 °F 27.9 °F 29.90 in NW 7.7 mph 16 mph 64.4% 0.00 in 202 W/m2
12:59 38.9 °F 27.7 °F 29.90 in NW 8.7 mph 17 mph 63.7% 0.00 in 178 W/m2
13:04 38.8 °F 27.5 °F 29.90 in NW 4.6 mph 17 mph 63.6% 0.00 in 216 W/m2
13:09 38.8 °F 27.8 °F 29.90 in NW 6.8 mph 16 mph 64.2% 0.00 in 172 W/m2
13:14 39 °F 27.5 °F 29.90 in WNW 7.2 mph 16 mph 63.1% 0.00 in 204 W/m2
13:19 38.9 °F 27.4 °F 29.90 in NW 9.1 mph 17 mph 63% 0.00 in 209 W/m2
13:24 38.8 °F 27.2 °F 29.90 in NW 7.9 mph 17 mph 62.7% 0.00 in 167 W/m2
13:29 38.7 °F 27.2 °F 29.90 in NW 7.3 mph 18 mph 63% 0.00 in 153 W/m2
13:34 38.6 °F 27.1 °F 29.90 in NW 8.7 mph 18 mph 63% 0.00 in 155 W/m2
13:39 38.5 °F 27.2 °F 29.90 in NW 3.8 mph 19 mph 63.4% 0.00 in 149 W/m2
13:44 38.5 °F 27.5 °F 29.90 in NW 8.7 mph 19 mph 64.1% 0.00 in 142 W/m2
13:49 38.4 °F 27.2 °F 29.90 in NW 7.8 mph 19 mph 63.5% 0.00 in 144 W/m2
13:54 38.3 °F 26.8 °F 29.90 in WNW 8.3 mph 19 mph 63% 0.00 in 165 W/m2
13:59 38.2 °F 27.1 °F 29.90 in NW 7.5 mph 19 mph 63.8% 0.00 in 209 W/m2
14:04 38.3 °F 27.2 °F 29.90 in NW 5.6 mph 19 mph 64% 0.00 in 149 W/m2
14:09 38.3 °F 27.2 °F 29.90 in NW 6.1 mph 19 mph 64% 0.00 in 109 W/m2
14:14 38.2 °F 27.1 °F 29.90 in WNW 7.3 mph 19 mph 64% 0.00 in 84 W/m2
14:19 38 °F 26.9 °F 29.90 in NW 5.6 mph 19 mph 64% 0.00 in 67 W/m2
14:24 37.7 °F 26.7 °F 29.90 in WNW 6.1 mph 19 mph 64.2% 0.00 in 60 W/m2
14:29 37.5 °F 26.8 °F 29.90 in NW 6.5 mph 19 mph 65% 0.00 in 121 W/m2
14:34 37.5 °F 26.9 °F 29.90 in NW 6.3 mph 19 mph 65.2% 0.00 in 128 W/m2
14:39 37.5 °F 26.8 °F 29.91 in NW 3.9 mph 17 mph 65% 0.00 in 142 W/m2
14:44 37.5 °F 26.8 °F 29.91 in NW 3.9 mph 17 mph 65% 0.00 in 35 W/m2
14:48 37.5 °F 26.8 °F 29.91 in NW 4.5 mph 17 mph 65% 0.00 in 42 W/m2
15:00 37.7 °F 27 °F 29.91 in NW 5 mph 17 mph 65% 0.00 in 48 W/m2
15:30 37 °F 26.7 °F 29.91 in NW 5 mph 15 mph 66% 0.00 in 25 W/m2
16:09 36.3 °F 26 °F 29.93 in NW 3.5 mph 15 mph 66% 0.00 in 25 W/m2
16:14 36.2 °F 26.3 °F 29.93 in NW 4.5 mph 10 mph 67% 0.00 in 9 W/m2
16:19 36.1 °F 26.2 °F 29.93 in NW 4.1 mph 13 mph 67% 0.00 in 9 W/m2
16:24 36 °F 26.1 °F 29.93 in WNW 4.2 mph 13 mph 67% 0.00 in 7 W/m2
16:29 35.8 °F 26 °F 29.93 in NW 4.6 mph 13 mph 67% 0.00 in 5 W/m2
16:34 35.6 °F 25.9 °F 29.93 in NW 6.3 mph 13 mph 67.4% 0.00 in 0 W/m2
16:39 35.4 °F 25.7 °F 29.93 in NW 8.6 mph 17 mph 67.5% 0.00 in 0 W/m2
16:44 35.2 °F 25.7 °F 29.93 in NW 5.9 mph 17 mph 68% 0.00 in 0 W/m2
16:49 35 °F 25.6 °F 29.93 in NW 5.9 mph 17 mph 68.2% 0.00 in 0 W/m2
16:54 34.8 °F 25.7 °F 29.93 in NW 7 mph 17 mph 69% 0.00 in 0 W/m2
16:59 34.6 °F 25.6 °F 29.94 in NW 4.5 mph 17 mph 69.3% 0.00 in 0 W/m2
17:04 34.5 °F 25.7 °F 29.94 in NW 3.6 mph 17 mph 70% 0.00 in 0 W/m2
17:09 34.3 °F 25.7 °F 29.94 in NW 5.5 mph 14 mph 70.5% 0.00 in 0 W/m2
17:14 34.1 °F 25.7 °F 29.94 in NW 3.9 mph 15 mph 71% 0.00 in 0 W/m2
17:19 34 °F 25.6 °F 29.94 in NW 4.9 mph 15 mph 71% 0.00 in 0 W/m2
17:24 34 °F 25.6 °F 29.95 in NW 3.4 mph 15 mph 71% 0.00 in 0 W/m2
17:29 33.9 °F 25.8 °F 29.95 in NW 5.1 mph 15 mph 71.8% 0.00 in 0 W/m2
17:34 33.8 °F 26.3 °F 29.95 in NW 4.8 mph 15 mph 73.7% 0.00 in 0 W/m2
17:39 33.7 °F 25.7 °F 29.95 in NW 5.3 mph 14 mph 72% 0.00 in 0 W/m2
17:44 33.7 °F 25.6 °F 29.95 in NW 5 mph 14 mph 72% 0.00 in 0 W/m2
17:49 33.7 °F 25.6 °F 29.95 in NW 3.1 mph 14 mph 72% 0.00 in 0 W/m2
17:54 33.6 °F 25.6 °F 29.95 in NW 4 mph 14 mph 72% 0.00 in 0 W/m2
17:59 33.6 °F 25.6 °F 29.95 in NW 2.5 mph 14 mph 72% 0.00 in 0 W/m2
18:01 33.6 °F 25.5 °F 29.95 in NW 3.6 mph 14 mph 72% 0.00 in 0 W/m2
18:30 33.3 °F 25.6 °F 29.95 in NW 2 mph 12 mph 73% 0.00 in 0 W/m2
19:00 33.5 °F 26.1 °F 29.95 in NW 2 mph 13 mph 74% 0.00 in 0 W/m2
19:30 34 °F 26.3 °F 29.96 in NW 2 mph 11 mph 73% 0.00 in 0 W/m2
20:04 34.4 °F 26.4 °F 29.96 in NW 3 mph 11 mph 72.5% 0.00 in 0 W/m2
20:09 34.5 °F 26.7 °F 29.95 in NNW 2 mph 9 mph 72.8% 0.00 in 0 W/m2
20:14 34.5 °F 26.6 °F 29.95 in NNW 1 mph 9 mph 72.4% 0.00 in 0 W/m2
20:19 34.6 °F 26.8 °F 29.95 in NNW 4.2 mph 14 mph 72.8% 0.00 in 0 W/m2
20:24 34.6 °F 26.5 °F 29.96 in NW 1.4 mph 14 mph 72% 0.00 in 0 W/m2
20:29 34.7 °F 26.6 °F 29.96 in NW 1.9 mph 14 mph 72% 0.00 in 0 W/m2
20:34 34.7 °F 26.6 °F 29.96 in NW 2.3 mph 14 mph 72% 0.00 in 0 W/m2
20:39 34.7 °F 26.6 °F 29.96 in NW 1.7 mph 11 mph 72% 0.00 in 0 W/m2
20:44 34.7 °F 26.6 °F 29.96 in NW 1.9 mph 11 mph 72% 0.00 in 0 W/m2
20:49 34.7 °F 26.6 °F 29.96 in NW 3.4 mph 15 mph 72% 0.00 in 0 W/m2
20:54 34.8 °F 26.7 °F 29.96 in NW 6.1 mph 15 mph 72% 0.00 in 0 W/m2
20:59 34.8 °F 26.7 °F 29.96 in NW 3.2 mph 15 mph 72% 0.00 in 0 W/m2
21:04 34.8 °F 26.7 °F 29.95 in NW 5.3 mph 15 mph 72% 0.00 in 0 W/m2
21:09 34.8 °F 26.7 °F 29.96 in NW 2.6 mph 11 mph 72% 0.00 in 0 W/m2
21:14 34.8 °F 26.7 °F 29.95 in NW 5.6 mph 17 mph 72% 0.00 in 0 W/m2
21:19 34.8 °F 26.6 °F 29.96 in NNW 5 mph 17 mph 71.5% 0.00 in 0 W/m2
21:24 34.9 °F 26.5 °F 29.96 in NNW 5.3 mph 17 mph 71% 0.00 in 0 W/m2
21:29 34.9 °F 26.5 °F 29.96 in NW 4.5 mph 17 mph 71% 0.00 in 0 W/m2
21:34 34.9 °F 26.5 °F 29.95 in NW 2.6 mph 17 mph 71% 0.00 in 0 W/m2
21:39 34.9 °F 26.5 °F 29.95 in NW 4.8 mph 11 mph 71% 0.00 in 0 W/m2
21:44 34.9 °F 26.4 °F 29.96 in NW 4.9 mph 13 mph 71% 0.00 in 0 W/m2
21:49 34.8 °F 26.4 °F 29.96 in NW 3.6 mph 13 mph 71% 0.00 in 0 W/m2
21:54 34.8 °F 26.1 °F 29.96 in NW 6.6 mph 17 mph 70.3% 0.00 in 0 W/m2
21:59 34.8 °F 26 °F 29.96 in NW 3.6 mph 17 mph 70% 0.00 in 0 W/m2
22:04 34.8 °F 26 °F 29.96 in NW 1.5 mph 17 mph 70% 0.00 in 0 W/m2
22:09 34.8 °F 26 °F 29.96 in NW 6 mph 16 mph 70% 0.00 in 0 W/m2
22:14 34.7 °F 25.9 °F 29.96 in NNW 6.9 mph 16 mph 70% 0.00 in 0 W/m2
22:19 34.7 °F 25.6 °F 29.96 in NW 6.2 mph 16 mph 69.1% 0.00 in 0 W/m2
22:24 34.6 °F 25.5 °F 29.96 in NW 5.6 mph 16 mph 69% 0.00 in 0 W/m2
22:29 34.6 °F 25.5 °F 29.96 in NW 6.4 mph 16 mph 69% 0.00 in 0 W/m2
22:34 34.5 °F 25.4 °F 29.96 in NW 5 mph 16 mph 69% 0.00 in 0 W/m2
22:39 34.5 °F 25.3 °F 29.96 in NNW 5.6 mph 13 mph 69% 0.00 in 0 W/m2
22:44 34.4 °F 25.3 °F 29.96 in NNW 3.3 mph 14 mph 69% 0.00 in 0 W/m2
22:49 34.3 °F 25.2 °F 29.96 in NW 3.5 mph 14 mph 69% 0.00 in 0 W/m2
22:54 34.3 °F 25.2 °F 29.96 in NNW 4.4 mph 14 mph 69% 0.00 in 0 W/m2
22:59 34.2 °F 25.1 °F 29.96 in NNW 3.9 mph 14 mph 69% 0.00 in 0 W/m2
23:04 34.1 °F 25 °F 29.95 in NW 6 mph 6 mph 69% 0.00 in 0 W/m2
23:09 34.1 °F 25 °F 29.95 in NW 4.9 mph 10 mph 69% 0.00 in 0 W/m2
23:14 34.1 °F 25 °F 29.95 in NW 4.5 mph 12 mph 69% 0.00 in 0 W/m2
23:19 34 °F 24.8 °F 29.95 in NW 6.3 mph 18 mph 68.7% 0.00 in 0 W/m2
23:24 34 °F 24.6 °F 29.95 in NW 5.5 mph 18 mph 68% 0.00 in 0 W/m2
23:29 34 °F 24.6 °F 29.95 in NW 4.2 mph 18 mph 68% 0.00 in 0 W/m2
23:34 33.9 °F 24.5 °F 29.95 in NW 3.6 mph 18 mph 68% 0.00 in 0 W/m2
23:39 33.9 °F 24.5 °F 29.95 in NW 4.9 mph 13 mph 68% 0.00 in 0 W/m2
23:44 33.9 °F 24.5 °F 29.96 in NW 3.9 mph 13 mph 68% 0.00 in 0 W/m2
23:49 33.8 °F 24.4 °F 29.96 in NW 6.1 mph 13 mph 68% 0.00 in 0 W/m2
23:54 33.8 °F 24.4 °F 29.96 in NW 5.7 mph 14 mph 68% 0.00 in 0 W/m2
23:59 33.8 °F 24.4 °F 29.95 in NW 3.8 mph 14 mph 68% 0.00 in 0 W/m2
Hartford County Weather
Compliments of Weather Underground - 2 mb